createdAt,value
2019-01-13T09:28:12.290Z,395
2019-01-13T09:28:23.864Z,393
2019-01-13T09:28:35.468Z,393
2019-01-13T09:28:46.946Z,375
2019-01-13T09:29:01.476Z,388
2019-01-13T09:29:12.910Z,386
2019-01-13T09:29:27.464Z,383
2019-01-13T09:29:45.420Z,397
2019-01-13T09:30:00.733Z,391
2019-01-13T09:30:12.274Z,395
2019-01-13T09:30:23.915Z,392
2019-01-13T09:30:35.530Z,390
2019-01-13T09:30:47.106Z,398
2019-01-13T09:31:01.614Z,390
2019-01-13T09:31:13.056Z,561
2019-01-13T09:31:46.807Z,568
2019-01-13T09:32:02.458Z,563
2019-01-13T09:32:14.376Z,560
2019-01-13T09:32:25.719Z,558
2019-01-13T09:32:42.841Z,577
2019-01-13T09:32:54.238Z,574
2019-01-13T09:33:10.228Z,586
2019-01-13T09:33:24.435Z,586
2019-01-13T09:33:35.808Z,596
2019-01-13T09:33:47.140Z,578
2019-01-13T09:33:58.822Z,577
2019-01-13T09:34:10.251Z,583
2019-01-13T09:34:22.205Z,583
2019-01-13T09:34:33.676Z,585
2019-01-13T09:34:45.143Z,580
2019-01-13T09:34:57.133Z,586
2019-01-13T09:35:08.504Z,588
2019-01-13T09:35:19.887Z,594
2019-01-13T09:35:34.832Z,588
2019-01-13T09:35:50.024Z,586
2019-01-13T09:36:01.441Z,597
2019-01-13T09:36:12.692Z,600
2019-01-13T09:36:26.979Z,583
2019-01-13T09:36:38.344Z,611
2019-01-13T09:36:49.757Z,591
2019-01-13T09:37:01.207Z,610
2019-01-13T09:37:12.647Z,598
2019-01-13T09:37:24.216Z,588
2019-01-13T09:37:38.665Z,563
2019-01-13T09:37:50.622Z,593
2019-01-13T09:38:06.573Z,589
2019-01-13T09:38:24.801Z,582
2019-01-13T09:38:36.332Z,594
2019-01-13T09:38:47.757Z,613
2019-01-13T09:38:59.102Z,618
2019-01-13T09:39:11.687Z,623
2019-01-13T09:39:23.333Z,595
2019-01-13T09:39:34.820Z,591
2019-01-13T09:39:46.408Z,600
2019-01-13T09:39:57.868Z,604
2019-01-13T09:40:10.328Z,607
2019-01-13T09:40:21.833Z,608
2019-01-13T09:40:33.251Z,610
2019-01-13T09:40:44.671Z,625
2019-01-13T09:40:59.823Z,620
2019-01-13T09:41:15.012Z,599
2019-01-13T09:41:29.531Z,596
2019-01-13T09:41:41.194Z,605
2019-01-13T09:41:52.839Z,600
2019-01-13T09:42:04.536Z,602
2019-01-13T09:42:16.001Z,611
2019-01-13T09:42:27.730Z,608
2019-01-13T09:42:39.829Z,624
2019-01-13T09:42:51.446Z,610
2019-01-13T09:43:03.001Z,642
2019-01-13T09:43:15.718Z,598
2019-01-13T09:43:27.381Z,590
2019-01-13T09:43:39.014Z,610
2019-01-13T09:43:50.716Z,622
2019-01-13T09:44:05.891Z,615
2019-01-13T09:44:17.277Z,614
2019-01-13T09:44:28.621Z,621
2019-01-13T09:44:40.088Z,621
2019-01-13T09:44:54.248Z,625
2019-01-13T09:45:05.656Z,620
2019-01-13T09:45:17.001Z,611
2019-01-13T09:45:28.442Z,589
2019-01-13T09:45:40.018Z,609
2019-01-13T09:45:51.397Z,623
2019-01-13T09:46:03.029Z,612
2019-01-13T09:46:14.425Z,623
2019-01-13T09:46:28.902Z,607
2019-01-13T09:46:40.611Z,618
2019-01-13T09:46:52.065Z,607
2019-01-13T09:47:03.534Z,610
2019-01-13T09:47:16.071Z,619
2019-01-13T09:47:27.378Z,625
2019-01-13T09:47:38.797Z,622
2019-01-13T09:47:50.215Z,617
2019-01-13T09:48:01.647Z,587
2019-01-13T09:48:16.146Z,601
2019-01-13T09:48:32.978Z,608
2019-01-13T09:48:44.460Z,607
2019-01-13T09:48:55.883Z,602
2019-01-13T09:49:10.189Z,606
2019-01-13T09:49:21.570Z,602
2019-01-13T09:49:33.357Z,608
2019-01-13T09:49:51.093Z,606
2019-01-13T09:50:02.737Z,616
2019-01-13T09:50:14.659Z,602
2019-01-13T09:50:29.024Z,601
2019-01-13T09:50:40.661Z,608
2019-01-13T09:50:55.533Z,633
2019-01-13T09:51:07.009Z,604
2019-01-13T09:51:18.389Z,623
2019-01-13T09:51:32.704Z,621
2019-01-13T09:51:44.235Z,600
2019-01-13T09:51:55.776Z,601
2019-01-13T09:52:07.212Z,614
2019-01-13T09:52:21.660Z,624
2019-01-13T09:52:33.089Z,602
2019-01-13T09:52:44.709Z,607
2019-01-13T09:52:56.251Z,605
2019-01-13T09:53:07.744Z,621
2019-01-13T09:53:19.179Z,623
2019-01-13T09:53:30.894Z,615
2019-01-13T09:53:45.507Z,606
2019-01-13T09:53:57.067Z,605
2019-01-13T09:54:12.503Z,610
2019-01-13T09:54:23.977Z,625
2019-01-13T09:54:38.420Z,603
2019-01-13T09:54:50.183Z,605
2019-01-13T09:55:04.662Z,605
2019-01-13T09:55:16.311Z,612
2019-01-13T09:55:28.738Z,612
2019-01-13T09:55:40.270Z,610
2019-01-13T09:55:54.913Z,620
2019-01-13T09:56:06.786Z,604
2019-01-13T09:56:18.444Z,616
2019-01-13T09:56:29.976Z,613
2019-01-13T09:56:41.274Z,655
2019-01-13T09:56:53.248Z,618
2019-01-13T09:57:04.707Z,630
2019-01-13T09:57:19.055Z,623
2019-01-13T09:57:30.571Z,620
2019-01-13T09:57:42.134Z,612
2019-01-13T09:57:56.464Z,618
2019-01-13T09:58:10.788Z,606
2019-01-13T09:58:22.102Z,606
2019-01-13T09:58:34.187Z,621
2019-01-13T09:58:53.066Z,619
2019-01-13T09:59:04.503Z,615
2019-01-13T09:59:17.031Z,603
2019-01-13T09:59:31.270Z,609
2019-01-13T09:59:42.753Z,620
2019-01-13T09:59:57.070Z,594
2019-01-13T10:00:12.430Z,598
2019-01-13T10:00:23.987Z,628
2019-01-13T10:00:39.257Z,608
2019-01-13T10:00:50.871Z,601
2019-01-13T10:01:08.412Z,606
2019-01-13T10:01:22.820Z,614
2019-01-13T10:01:40.783Z,612
2019-01-13T10:01:52.340Z,624
2019-01-13T10:02:03.938Z,611
2019-01-13T10:02:18.569Z,599
2019-01-13T10:02:33.153Z,610
2019-01-13T10:02:50.355Z,593
2019-01-13T10:03:02.123Z,610
2019-01-13T10:03:14.062Z,617
2019-01-13T10:03:26.923Z,606
2019-01-13T10:03:46.730Z,603
2019-01-13T10:03:59.161Z,608
2019-01-13T10:04:11.803Z,612
2019-01-13T10:04:23.560Z,599
2019-01-13T10:04:38.025Z,626
2019-01-13T10:04:49.548Z,612
2019-01-13T10:05:01.128Z,602
2019-01-13T10:05:15.706Z,600
2019-01-13T10:05:27.360Z,612
2019-01-13T10:05:39.544Z,618
2019-01-13T10:05:54.071Z,612
2019-01-13T10:06:09.100Z,619
2019-01-13T10:06:30.387Z,620
2019-01-13T10:06:41.792Z,623
2019-01-13T10:06:53.262Z,626
2019-01-13T10:07:04.729Z,604
2019-01-13T10:07:16.089Z,617
2019-01-13T10:07:27.347Z,631
2019-01-13T10:07:38.874Z,627
2019-01-13T10:07:50.219Z,618
2019-01-13T10:08:04.540Z,608
2019-01-13T10:08:16.050Z,608
2019-01-13T10:08:27.452Z,612
2019-01-13T10:08:39.094Z,613
2019-01-13T10:08:53.409Z,621
2019-01-13T10:09:04.935Z,617
2019-01-13T10:09:16.482Z,608
2019-01-13T10:09:27.962Z,604
2019-01-13T10:09:39.542Z,596
2019-01-13T10:09:51.612Z,598
2019-01-13T10:10:03.217Z,595
2019-01-13T10:10:14.814Z,604
2019-01-13T10:10:29.185Z,615
2019-01-13T10:10:40.676Z,617
2019-01-13T10:10:56.303Z,610
2019-01-13T10:11:07.859Z,595
2019-01-13T10:11:19.429Z,599
2019-01-13T10:11:33.966Z,615
2019-01-13T10:11:45.406Z,615
2019-01-13T10:11:57.087Z,618
2019-01-13T10:12:08.654Z,614
2019-01-13T10:12:20.335Z,592
2019-01-13T10:12:33.061Z,591
2019-01-13T10:12:47.490Z,607
2019-01-13T10:12:58.869Z,611
2019-01-13T10:13:14.368Z,614
2019-01-13T10:13:28.704Z,605
2019-01-13T10:13:40.527Z,607
2019-01-13T10:13:55.337Z,595
2019-01-13T10:14:10.298Z,618
2019-01-13T10:14:22.139Z,603
2019-01-13T10:14:37.779Z,602
2019-01-13T10:14:49.807Z,597
2019-01-13T10:15:01.655Z,597
2019-01-13T10:15:13.900Z,601
2019-01-13T10:15:25.450Z,609
2019-01-13T10:15:37.151Z,616
2019-01-13T10:15:49.219Z,604
2019-01-13T10:16:03.778Z,601
2019-01-13T10:16:15.446Z,598
2019-01-13T10:16:26.981Z,592
2019-01-13T10:16:38.548Z,606
2019-01-13T10:16:50.149Z,612
2019-01-13T10:17:01.606Z,590
2019-01-13T10:17:16.823Z,600
2019-01-13T10:17:28.533Z,611
2019-01-13T10:17:39.981Z,606
2019-01-13T10:17:54.483Z,601
2019-01-13T10:18:08.950Z,597
2019-01-13T10:18:20.571Z,592
2019-01-13T10:18:32.068Z,602
2019-01-13T10:18:43.685Z,601
2019-01-13T10:18:55.383Z,594
2019-01-13T10:19:07.023Z,599
2019-01-13T10:19:19.085Z,608
2019-01-13T10:19:30.664Z,594
2019-01-13T10:19:45.346Z,587
2019-01-13T10:19:57.514Z,623
2019-01-13T10:20:09.353Z,562
2019-01-13T10:20:21.001Z,603
2019-01-13T10:20:32.675Z,587
2019-01-13T10:20:46.400Z,589
2019-01-13T10:21:02.437Z,622
2019-01-13T10:21:17.029Z,602
2019-01-13T10:21:29.087Z,598
2019-01-13T10:21:47.456Z,603
2019-01-13T10:22:02.843Z,598
2019-01-13T10:22:14.719Z,597
2019-01-13T10:22:26.095Z,618
2019-01-13T10:22:38.219Z,614
2019-01-13T10:22:49.839Z,607
2019-01-13T10:23:01.317Z,614
2019-01-13T10:23:13.281Z,623
2019-01-13T10:23:27.736Z,602
2019-01-13T10:23:39.200Z,596
2019-01-13T10:23:50.686Z,612
2019-01-13T10:24:05.875Z,596
2019-01-13T10:24:17.437Z,608
2019-01-13T10:24:32.154Z,605
2019-01-13T10:24:43.765Z,621
2019-01-13T10:24:55.463Z,597
2019-01-13T10:25:09.750Z,623
2019-01-13T10:25:24.779Z,598
2019-01-13T10:25:42.758Z,591
2019-01-13T10:25:54.227Z,604
2019-01-13T10:26:05.771Z,594
2019-01-13T10:26:18.184Z,602
2019-01-13T10:26:29.679Z,597
2019-01-13T10:26:44.916Z,588
2019-01-13T10:26:56.374Z,614
2019-01-13T10:27:07.924Z,608
2019-01-13T10:27:22.444Z,610
2019-01-13T10:27:37.725Z,605
2019-01-13T10:27:49.391Z,620
2019-01-13T10:28:01.237Z,610
2019-01-13T10:28:14.273Z,600
2019-01-13T10:28:26.182Z,606
2019-01-13T10:28:37.725Z,600
2019-01-13T10:28:49.082Z,615
2019-01-13T10:29:00.514Z,592
2019-01-13T10:29:12.034Z,619
2019-01-13T10:29:26.504Z,601
2019-01-13T10:29:38.054Z,596
2019-01-13T10:29:52.505Z,594
2019-01-13T10:30:06.880Z,599
2019-01-13T10:30:18.461Z,610
2019-01-13T10:30:37.891Z,592
2019-01-13T10:30:49.613Z,595
2019-01-13T10:31:10.484Z,589
2019-01-13T10:31:22.009Z,603
2019-01-13T10:31:33.643Z,592
2019-01-13T10:31:50.867Z,592
2019-01-13T10:32:05.607Z,591
2019-01-13T10:32:16.937Z,611
2019-01-13T10:32:28.724Z,601
2019-01-13T10:32:40.234Z,599
2019-01-13T10:32:59.582Z,606
2019-01-13T10:33:11.159Z,598
2019-01-13T10:33:22.834Z,603
2019-01-13T10:33:34.456Z,602
2019-01-13T10:33:45.977Z,602
2019-01-13T10:34:00.556Z,589
2019-01-13T10:34:12.169Z,562
2019-01-13T10:34:23.854Z,589
2019-01-13T10:34:39.043Z,596
2019-01-13T10:34:50.550Z,590
2019-01-13T10:35:02.187Z,587
2019-01-13T10:35:16.670Z,586
2019-01-13T10:35:28.460Z,601
2019-01-13T10:35:39.975Z,598
2019-01-13T10:35:52.432Z,598
2019-01-13T10:36:04.032Z,587
2019-01-13T10:36:15.568Z,608
2019-01-13T10:36:27.240Z,587
2019-01-13T10:36:38.816Z,602
2019-01-13T10:36:53.215Z,597
2019-01-13T10:37:04.681Z,594
2019-01-13T10:37:16.235Z,579
2019-01-13T10:37:27.708Z,602
2019-01-13T10:37:38.956Z,601
2019-01-13T10:37:56.308Z,622
2019-01-13T10:38:07.753Z,604
2019-01-13T10:38:19.032Z,600
2019-01-13T10:38:30.503Z,611
2019-01-13T10:38:42.669Z,601
2019-01-13T10:38:55.788Z,596
2019-01-13T10:39:10.332Z,606
2019-01-13T10:39:22.498Z,590
2019-01-13T10:39:40.359Z,599
2019-01-13T10:39:53.569Z,594
2019-01-13T10:40:10.234Z,578
2019-01-13T10:40:23.635Z,594
2019-01-13T10:40:35.648Z,586
2019-01-13T10:40:49.105Z,595
2019-01-13T10:41:04.455Z,613
2019-01-13T10:41:17.142Z,608
2019-01-13T10:41:29.579Z,593
2019-01-13T10:41:43.045Z,595
2019-01-13T10:42:04.196Z,592
2019-01-13T10:42:18.683Z,590
2019-01-13T10:42:31.039Z,591
2019-01-13T10:42:46.569Z,584
